createdAt,value
2023-05-19T00:02:22.376Z,15.43
2023-05-19T00:04:49.638Z,13.88
2023-05-19T00:07:18.833Z,13.82
2023-05-19T00:09:45.669Z,16.30
2023-05-19T00:12:13.117Z,17.08
2023-05-19T00:14:40.202Z,13.97
2023-05-19T00:17:07.166Z,17.88
2023-05-19T00:19:33.679Z,15.10
2023-05-19T00:22:00.420Z,16.02
2023-05-19T00:24:26.965Z,15.95
2023-05-19T00:26:53.709Z,15.73
2023-05-19T00:29:20.269Z,16.50
2023-05-19T00:31:46.855Z,14.85
2023-05-19T00:34:13.586Z,14.23
2023-05-19T00:36:40.209Z,18.90
2023-05-19T00:39:06.861Z,17.43
2023-05-19T00:41:33.406Z,15.88
2023-05-19T00:44:00.046Z,16.90
2023-05-19T00:46:26.747Z,16.50
2023-05-19T00:48:53.434Z,15.30
2023-05-19T00:51:20.231Z,13.03
2023-05-19T00:53:48.628Z,13.15
2023-05-19T00:56:16.288Z,14.05
2023-05-19T00:58:43.481Z,15.05
2023-05-19T01:01:10.022Z,12.27
2023-05-19T01:03:37.382Z,12.90
2023-05-19T01:06:04.900Z,13.68
2023-05-19T01:08:37.034Z,13.70
2023-05-19T01:11:08.128Z,15.65
2023-05-19T01:13:36.627Z,12.10
2023-05-19T01:16:31.917Z,13.63
2023-05-19T01:19:23.599Z,13.93
2023-05-19T01:22:14.821Z,11.85
2023-05-19T01:24:56.720Z,17.33
2023-05-19T01:28:10.178Z,13.27
2023-05-19T01:30:44.881Z,16.10
2023-05-19T01:33:13.985Z,13.40
2023-05-19T01:35:42.656Z,12.07
2023-05-19T01:38:11.993Z,12.57
2023-05-19T01:40:41.174Z,18.65
2023-05-19T01:43:10.562Z,11.97
2023-05-19T01:45:37.604Z,13.48
2023-05-19T01:48:05.033Z,14.15
2023-05-19T01:50:32.500Z,13.05
2023-05-19T01:53:00.634Z,13.10
2023-05-19T01:55:27.987Z,14.53
2023-05-19T01:58:47.313Z,13.40
2023-05-19T02:01:26.835Z,12.85
2023-05-19T02:04:15.148Z,13.30
2023-05-19T02:06:55.603Z,15.00
2023-05-19T02:09:47.095Z,13.70
2023-05-19T02:12:20.284Z,13.15
2023-05-19T02:14:56.080Z,14.05
2023-05-19T02:17:26.637Z,12.75
2023-05-19T02:19:53.550Z,16.40
2023-05-19T02:22:20.555Z,11.73
2023-05-19T02:24:47.482Z,14.57
2023-05-19T02:27:14.263Z,14.27
2023-05-19T02:29:40.859Z,13.52
2023-05-19T02:32:07.889Z,15.43
2023-05-19T02:34:34.604Z,13.97
2023-05-19T02:37:10.314Z,15.27
2023-05-19T02:39:37.384Z,15.40
2023-05-19T02:42:04.392Z,13.15
2023-05-19T02:44:32.053Z,14.80
2023-05-19T02:46:59.313Z,14.87
2023-05-19T02:49:26.281Z,12.05
2023-05-19T02:51:53.091Z,13.43
2023-05-19T02:54:19.709Z,13.38
2023-05-19T02:56:46.716Z,15.32
2023-05-19T02:59:13.528Z,14.43
2023-05-19T03:01:40.998Z,14.07
2023-05-19T03:04:07.923Z,15.23
2023-05-19T03:06:34.961Z,17.75
2023-05-19T03:09:01.794Z,14.73
2023-05-19T03:11:28.719Z,15.57
2023-05-19T03:13:55.699Z,14.98
2023-05-19T03:16:22.628Z,15.20
2023-05-19T03:18:49.345Z,14.43
2023-05-19T03:21:16.481Z,16.35
2023-05-19T03:23:43.310Z,16.40
2023-05-19T03:26:11.299Z,17.10
2023-05-19T03:28:38.028Z,16.15
2023-05-19T03:31:04.825Z,14.55
2023-05-19T03:33:31.659Z,14.50
2023-05-19T03:35:58.332Z,14.80
2023-05-19T03:38:27.271Z,16.70
2023-05-19T03:40:54.034Z,17.00
2023-05-19T03:43:20.552Z,13.98
2023-05-19T03:45:48.421Z,16.75
2023-05-19T03:48:15.117Z,18.50
2023-05-19T03:50:42.532Z,15.07
2023-05-19T03:53:09.075Z,15.98
2023-05-19T03:55:35.913Z,14.63
2023-05-19T03:58:02.915Z,16.80
2023-05-19T04:00:30.594Z,14.57
2023-05-19T04:02:57.871Z,15.73
2023-05-19T04:05:24.781Z,13.88
2023-05-19T04:07:51.276Z,14.93
2023-05-19T04:10:18.822Z,15.90
2023-05-19T04:12:45.479Z,15.37
2023-05-19T04:15:12.209Z,15.38
2023-05-19T04:17:39.660Z,14.35
2023-05-19T04:20:07.134Z,15.18
2023-05-19T04:22:33.930Z,16.23
2023-05-19T04:25:00.836Z,17.30
2023-05-19T04:27:27.624Z,17.02
2023-05-19T04:29:54.294Z,18.90
2023-05-19T04:32:21.142Z,16.00
2023-05-19T04:34:47.690Z,15.13
2023-05-19T04:37:14.543Z,16.20
2023-05-19T04:39:41.739Z,14.13
2023-05-19T04:42:10.194Z,16.85
2023-05-19T04:44:36.767Z,19.15
2023-05-19T04:47:04.074Z,16.02
2023-05-19T04:49:30.888Z,19.70
2023-05-19T04:51:58.008Z,15.73
2023-05-19T04:54:24.592Z,16.58
2023-05-19T04:56:51.308Z,14.25
2023-05-19T04:59:17.813Z,19.77
2023-05-19T05:01:44.435Z,15.87
2023-05-19T05:04:11.789Z,15.20
2023-05-19T05:06:38.841Z,17.60
2023-05-19T05:09:05.809Z,16.13
2023-05-19T05:11:33.104Z,18.05
2023-05-19T05:14:00.199Z,15.27
2023-05-19T05:16:28.757Z,16.48
2023-05-19T05:18:56.232Z,15.23
2023-05-19T05:21:23.609Z,15.23
2023-05-19T05:23:51.491Z,19.52
2023-05-19T05:26:19.474Z,13.50
2023-05-19T05:28:46.106Z,16.27
2023-05-19T05:31:14.076Z,17.35
2023-05-19T05:33:41.129Z,15.95
2023-05-19T05:36:08.231Z,14.63
2023-05-19T05:38:35.074Z,22.03
2023-05-19T05:41:02.670Z,14.15
2023-05-19T05:43:30.537Z,13.88
2023-05-19T05:45:58.013Z,14.32
2023-05-19T05:48:25.569Z,16.67
2023-05-19T05:50:52.886Z,18.00
2023-05-19T05:53:20.791Z,16.50
2023-05-19T05:55:48.009Z,14.10
2023-05-19T05:58:15.213Z,15.85
2023-05-19T06:00:43.256Z,17.08
2023-05-19T06:03:10.614Z,15.03
2023-05-19T06:05:38.707Z,17.25
2023-05-19T06:08:06.024Z,17.40
2023-05-19T06:10:33.282Z,15.27
2023-05-19T06:13:00.867Z,16.13
2023-05-19T06:15:27.916Z,15.67
2023-05-19T06:17:54.722Z,13.98
2023-05-19T06:20:21.639Z,14.32
2023-05-19T06:22:48.436Z,15.75
2023-05-19T06:25:16.069Z,12.55
2023-05-19T06:27:43.125Z,14.50
2023-05-19T06:30:09.982Z,16.70
2023-05-19T06:32:36.695Z,17.80
2023-05-19T06:35:03.536Z,14.00
2023-05-19T06:37:30.870Z,15.27
2023-05-19T06:39:57.950Z,15.57
2023-05-19T06:42:26.780Z,14.88
2023-05-19T06:44:53.788Z,14.40
2023-05-19T06:47:20.656Z,16.90
2023-05-19T06:49:48.385Z,15.90
2023-05-19T06:52:15.037Z,13.77
2023-05-19T06:54:41.775Z,12.82
2023-05-19T06:57:08.480Z,14.32
2023-05-19T06:59:34.938Z,17.35
2023-05-19T07:02:01.641Z,13.18
2023-05-19T07:04:28.354Z,12.20
2023-05-19T07:06:55.082Z,14.75
2023-05-19T07:09:21.692Z,15.00
2023-05-19T07:11:49.565Z,15.02
2023-05-19T07:14:16.197Z,17.13
2023-05-19T07:16:43.802Z,13.37
2023-05-19T07:19:10.786Z,14.60
2023-05-19T07:21:37.430Z,13.32
2023-05-19T07:24:04.598Z,14.70
2023-05-19T07:26:32.020Z,14.13
2023-05-19T07:28:58.771Z,16.47
2023-05-19T07:31:25.417Z,13.98
2023-05-19T07:33:54.368Z,15.63
2023-05-19T07:36:21.680Z,15.13
2023-05-19T07:38:48.696Z,13.82
2023-05-19T07:41:15.453Z,13.87
2023-05-19T07:43:43.183Z,13.00
2023-05-19T07:46:09.851Z,13.85
2023-05-19T07:48:37.449Z,12.85
2023-05-19T07:51:04.183Z,13.07
2023-05-19T07:53:31.091Z,13.77
2023-05-19T07:55:58.836Z,13.52
2023-05-19T07:58:25.664Z,12.55
2023-05-19T08:00:52.304Z,15.43
2023-05-19T08:03:19.156Z,14.15
2023-05-19T08:05:45.829Z,14.20
2023-05-19T08:08:12.420Z,13.00
2023-05-19T08:10:39.193Z,13.70
2023-05-19T08:13:05.716Z,11.45
2023-05-19T08:15:32.957Z,16.88
2023-05-19T08:17:59.979Z,12.47
2023-05-19T08:20:26.800Z,14.50
2023-05-19T08:22:53.570Z,12.98
2023-05-19T08:25:20.409Z,14.68
2023-05-19T08:27:47.875Z,12.63
2023-05-19T08:30:14.601Z,12.57
2023-05-19T08:32:41.966Z,11.02
2023-05-19T08:35:09.429Z,11.02
2023-05-19T08:37:36.309Z,11.52
2023-05-19T08:40:03.227Z,12.57
2023-05-19T08:42:30.272Z,12.13
2023-05-19T08:44:57.052Z,13.15
2023-05-19T08:47:24.095Z,12.95
2023-05-19T08:49:55.728Z,10.63
2023-05-19T08:52:52.852Z,11.82
2023-05-19T08:55:22.692Z,12.63
2023-05-19T08:57:49.856Z,11.18
2023-05-19T09:00:17.714Z,15.05
2023-05-19T09:02:55.163Z,9.90
2023-05-19T09:05:28.419Z,9.68
2023-05-19T09:07:55.727Z,9.57
2023-05-19T09:10:22.468Z,8.52
2023-05-19T09:12:49.496Z,11.95
2023-05-19T09:15:17.586Z,10.73
2023-05-19T09:17:45.945Z,11.07
2023-05-19T09:20:12.936Z,9.47
2023-05-19T09:22:46.273Z,10.40
2023-05-19T09:25:25.940Z,10.70
2023-05-19T09:27:55.192Z,10.38
2023-05-19T09:30:21.968Z,11.07
2023-05-19T09:32:48.683Z,9.50
2023-05-19T09:35:15.674Z,8.88
2023-05-19T09:37:43.372Z,8.90
2023-05-19T09:40:11.358Z,10.50
2023-05-19T09:42:40.865Z,8.50
2023-05-19T09:45:08.847Z,7.97
2023-05-19T09:47:39.613Z,8.77
2023-05-19T09:50:07.679Z,9.10
2023-05-19T09:52:44.618Z,8.73
2023-05-19T09:55:13.497Z,9.70
2023-05-19T09:57:40.410Z,8.67
2023-05-19T10:00:11.591Z,9.48
2023-05-19T10:02:42.615Z,10.02
2023-05-19T10:05:18.075Z,8.13
2023-05-19T10:07:44.768Z,9.45
2023-05-19T10:10:13.026Z,10.50
2023-05-19T10:12:40.815Z,7.43
2023-05-19T10:15:12.471Z,7.22
2023-05-19T10:17:40.495Z,12.02
2023-05-19T10:20:12.161Z,8.38
2023-05-19T10:22:40.365Z,9.43
2023-05-19T10:25:08.308Z,9.07
2023-05-19T10:27:37.711Z,8.30
2023-05-19T10:30:16.469Z,9.75
2023-05-19T10:32:46.910Z,7.97
2023-05-19T10:36:07.507Z,11.33
2023-05-19T10:38:48.953Z,8.50
2023-05-19T10:41:42.376Z,8.48
2023-05-19T10:44:41.048Z,9.30
2023-05-19T10:47:08.098Z,8.60
2023-05-19T10:49:36.347Z,10.60
2023-05-19T10:52:03.969Z,10.88
2023-05-19T10:54:41.289Z,11.57
2023-05-19T10:57:08.314Z,11.93
2023-05-19T10:59:36.642Z,11.45
2023-05-19T11:02:04.410Z,11.70
2023-05-19T11:04:45.535Z,9.55
2023-05-19T11:07:17.519Z,12.90
2023-05-19T11:09:44.227Z,11.35
2023-05-19T11:12:10.925Z,9.98
2023-05-19T11:14:37.789Z,12.10
2023-05-19T11:17:04.593Z,9.88
2023-05-19T11:19:35.432Z,8.38
2023-05-19T11:22:13.327Z,9.35
2023-05-19T11:24:47.007Z,8.35
2023-05-19T11:27:19.496Z,9.93
2023-05-19T11:29:48.148Z,9.68
2023-05-19T11:32:15.333Z,10.27
2023-05-19T11:34:41.842Z,7.95
2023-05-19T11:37:08.573Z,9.55
2023-05-19T11:39:35.348Z,8.57
2023-05-19T11:42:02.529Z,9.90
2023-05-19T11:44:29.035Z,9.70
2023-05-19T11:46:55.977Z,10.15
2023-05-19T11:49:22.976Z,10.43
2023-05-19T11:51:49.746Z,8.67
2023-05-19T11:54:16.350Z,9.13
2023-05-19T11:56:43.427Z,7.95
2023-05-19T11:59:10.168Z,9.93
2023-05-19T12:01:36.835Z,8.57
2023-05-19T12:04:08.867Z,8.93
2023-05-19T12:06:35.440Z,9.40
2023-05-19T12:09:02.436Z,8.60
2023-05-19T12:11:29.194Z,8.50
2023-05-19T12:13:58.955Z,9.05
2023-05-19T12:16:33.568Z,8.60
2023-05-19T12:19:00.267Z,8.45
2023-05-19T12:21:34.253Z,8.98
2023-05-19T12:24:01.794Z,8.88
2023-05-19T12:26:28.420Z,8.00
2023-05-19T12:28:55.153Z,8.27
2023-05-19T12:31:21.944Z,9.50
2023-05-19T12:33:49.336Z,8.40
2023-05-19T12:36:16.062Z,9.20
2023-05-19T12:38:43.382Z,9.70
2023-05-19T12:41:13.332Z,6.40
2023-05-19T12:43:41.030Z,8.13
2023-05-19T12:46:11.557Z,9.25
2023-05-19T12:48:45.543Z,10.15
2023-05-19T12:51:19.326Z,9.77
2023-05-19T12:53:46.645Z,9.47
2023-05-19T12:56:15.146Z,7.88
2023-05-19T12:58:42.568Z,9.40
2023-05-19T13:01:19.275Z,8.25
2023-05-19T13:03:46.147Z,8.05
2023-05-19T13:06:12.876Z,9.97
2023-05-19T13:08:39.540Z,6.65
2023-05-19T13:11:06.950Z,7.45
2023-05-19T13:13:34.373Z,9.05
2023-05-19T13:16:01.000Z,9.52
2023-05-19T13:18:27.639Z,10.73
2023-05-19T13:20:54.206Z,7.22
2023-05-19T13:23:21.665Z,9.02
2023-05-19T13:25:49.711Z,8.05
2023-05-19T13:28:16.281Z,8.35
2023-05-19T13:30:43.767Z,8.27
2023-05-19T13:33:10.467Z,10.63
2023-05-19T13:35:37.949Z,7.85
2023-05-19T13:38:08.733Z,8.60
2023-05-19T13:40:35.844Z,9.75
2023-05-19T13:43:05.154Z,8.40
2023-05-19T13:45:32.527Z,8.10
2023-05-19T13:47:59.175Z,7.50
2023-05-19T13:50:25.880Z,8.00
2023-05-19T13:52:52.668Z,7.43
2023-05-19T13:55:19.691Z,7.97
2023-05-19T13:57:46.541Z,9.52
2023-05-19T14:00:13.634Z,8.90
2023-05-19T14:02:40.404Z,8.27
2023-05-19T14:05:07.438Z,6.88
2023-05-19T14:07:35.183Z,8.03
2023-05-19T14:10:03.316Z,8.30
2023-05-19T14:12:38.070Z,9.32
2023-05-19T14:15:11.542Z,8.20
2023-05-19T14:17:38.274Z,8.48
2023-05-19T14:20:06.079Z,10.80
2023-05-19T14:22:32.933Z,9.95
2023-05-19T14:24:59.831Z,7.85
2023-05-19T14:27:27.118Z,9.70
2023-05-19T14:29:54.040Z,8.80
2023-05-19T14:32:20.873Z,8.73
2023-05-19T14:34:48.274Z,9.00
2023-05-19T14:37:14.781Z,13.48
2023-05-19T14:39:41.292Z,12.95
2023-05-19T14:42:07.817Z,9.70
2023-05-19T14:44:34.568Z,8.17
2023-05-19T14:47:05.378Z,8.80
2023-05-19T14:49:32.029Z,7.53
2023-05-19T14:51:58.791Z,11.07
2023-05-19T14:54:25.593Z,8.35
2023-05-19T14:56:53.106Z,8.53
2023-05-19T14:59:19.631Z,13.00
2023-05-19T15:01:46.514Z,7.03
2023-05-19T15:04:14.069Z,12.23
2023-05-19T15:06:40.854Z,8.07
2023-05-19T15:09:07.403Z,9.97
2023-05-19T15:11:34.151Z,8.20
2023-05-19T15:14:01.097Z,7.82
2023-05-19T15:16:27.645Z,8.43
2023-05-19T15:18:54.362Z,9.95
2023-05-19T15:21:21.245Z,6.80
2023-05-19T15:23:48.067Z,8.10
2023-05-19T15:26:14.707Z,8.15
2023-05-19T15:28:41.869Z,9.50
2023-05-19T15:31:09.154Z,8.55
2023-05-19T15:33:36.068Z,7.87
2023-05-19T15:36:03.015Z,9.82
2023-05-19T15:38:30.085Z,8.32
2023-05-19T15:40:57.243Z,7.90
2023-05-19T15:43:24.541Z,11.07
2023-05-19T15:45:51.409Z,11.17
2023-05-19T15:48:18.108Z,7.97
2023-05-19T15:50:46.358Z,8.23
2023-05-19T15:53:13.338Z,9.70
2023-05-19T15:55:39.855Z,8.88
2023-05-19T15:58:07.032Z,9.50
2023-05-19T16:00:33.928Z,8.93
2023-05-19T16:03:00.855Z,8.75
2023-05-19T16:05:27.721Z,8.38
2023-05-19T16:07:54.386Z,9.88
2023-05-19T16:10:21.366Z,8.70
2023-05-19T16:12:48.329Z,8.48
2023-05-19T16:15:14.870Z,8.65
2023-05-19T16:17:41.531Z,8.70
2023-05-19T16:20:08.824Z,8.88
2023-05-19T16:22:35.633Z,8.47
2023-05-19T16:25:02.463Z,8.95
2023-05-19T16:27:28.976Z,7.68
2023-05-19T16:29:55.774Z,7.95
2023-05-19T16:32:23.573Z,9.05
2023-05-19T16:34:50.461Z,9.63
2023-05-19T16:37:16.991Z,8.52
2023-05-19T16:39:43.911Z,7.85
2023-05-19T16:42:10.634Z,8.02
2023-05-19T16:44:37.722Z,8.45
2023-05-19T16:47:04.534Z,10.60
2023-05-19T16:49:31.265Z,8.38
2023-05-19T16:51:57.898Z,7.97
2023-05-19T16:54:24.704Z,8.75
2023-05-19T16:56:52.716Z,9.57
2023-05-19T16:59:19.670Z,9.27
2023-05-19T17:01:47.079Z,8.82
2023-05-19T17:04:13.757Z,10.80
2023-05-19T17:06:40.221Z,9.57
2023-05-19T17:09:07.077Z,10.18
2023-05-19T17:11:33.969Z,8.93
2023-05-19T17:14:00.765Z,7.60
2023-05-19T17:16:28.520Z,8.98
2023-05-19T17:18:55.460Z,10.00
2023-05-19T17:21:22.155Z,9.38
2023-05-19T17:23:48.691Z,8.03
2023-05-19T17:26:15.488Z,11.00
2023-05-19T17:28:42.115Z,10.98
2023-05-19T17:31:12.602Z,11.15
2023-05-19T17:33:39.803Z,9.80
2023-05-19T17:36:07.639Z,9.07
2023-05-19T17:38:35.787Z,11.00
2023-05-19T17:41:03.117Z,10.15
2023-05-19T17:43:30.189Z,7.47
2023-05-19T17:45:58.684Z,11.38
2023-05-19T17:48:26.079Z,10.67
2023-05-19T17:50:52.649Z,10.05
2023-05-19T17:53:19.881Z,8.15
2023-05-19T17:55:51.258Z,10.88
2023-05-19T17:58:19.371Z,10.05
2023-05-19T18:00:46.892Z,8.43
2023-05-19T18:03:13.995Z,10.50
2023-05-19T18:05:40.766Z,9.98
2023-05-19T18:08:08.121Z,8.45
2023-05-19T18:10:37.942Z,9.98
2023-05-19T18:13:05.860Z,8.40
2023-05-19T18:15:32.876Z,8.07
2023-05-19T18:17:59.878Z,10.65
2023-05-19T18:20:26.946Z,7.75
2023-05-19T18:22:53.703Z,8.80
2023-05-19T18:25:20.189Z,12.57
2023-05-19T18:27:46.765Z,9.82
2023-05-19T18:30:13.515Z,10.30
2023-05-19T18:32:40.358Z,9.45
2023-05-19T18:35:08.334Z,7.63
2023-05-19T18:37:35.407Z,8.50
2023-05-19T18:40:01.987Z,8.73
2023-05-19T18:42:28.721Z,8.63
2023-05-19T18:44:55.255Z,10.25
2023-05-19T18:47:21.905Z,7.38
2023-05-19T18:49:48.961Z,8.67
2023-05-19T18:52:15.933Z,7.95
2023-05-19T18:54:42.691Z,8.68
2023-05-19T18:57:09.254Z,9.55
2023-05-19T18:59:35.860Z,8.38
2023-05-19T19:02:04.826Z,7.63
2023-05-19T19:04:31.689Z,7.20
2023-05-19T19:06:58.503Z,9.57
2023-05-19T19:09:25.107Z,8.60
2023-05-19T19:11:52.785Z,9.48
2023-05-19T19:14:19.341Z,11.87
2023-05-19T19:16:45.958Z,11.23
2023-05-19T19:19:12.773Z,8.95
2023-05-19T19:21:39.526Z,8.35
2023-05-19T19:24:07.111Z,11.30
2023-05-19T19:26:33.719Z,9.20
2023-05-19T19:29:00.794Z,11.60
2023-05-19T19:31:27.488Z,9.85
2023-05-19T19:33:54.913Z,9.40
2023-05-19T19:36:21.435Z,10.05
2023-05-19T19:38:48.065Z,10.97
2023-05-19T19:41:14.598Z,11.02
2023-05-19T19:43:41.343Z,9.63
2023-05-19T19:46:08.622Z,8.55
2023-05-19T19:48:35.726Z,10.77
2023-05-19T19:51:02.594Z,10.53
2023-05-19T19:53:29.195Z,10.70
2023-05-19T19:55:57.601Z,11.20
2023-05-19T19:58:24.605Z,9.80
2023-05-19T20:01:04.514Z,9.10
2023-05-19T20:03:31.314Z,12.37
2023-05-19T20:05:57.847Z,11.35
2023-05-19T20:08:25.977Z,9.85
2023-05-19T20:10:53.297Z,11.73
2023-05-19T20:13:20.101Z,12.52
2023-05-19T20:15:47.701Z,13.83
2023-05-19T20:18:14.351Z,14.60
2023-05-19T20:20:41.616Z,12.98
2023-05-19T20:23:08.695Z,12.88
2023-05-19T20:25:38.360Z,13.68
2023-05-19T20:28:05.035Z,12.90
2023-05-19T20:30:31.986Z,14.65
2023-05-19T20:32:58.657Z,11.05
2023-05-19T20:35:25.432Z,12.90
2023-05-19T20:37:52.775Z,14.10
2023-05-19T20:40:19.419Z,13.57
2023-05-19T20:42:45.927Z,15.90
2023-05-19T20:45:12.731Z,17.38
2023-05-19T20:47:39.282Z,15.25
2023-05-19T20:50:06.682Z,12.55
2023-05-19T20:52:33.258Z,19.03
2023-05-19T20:54:59.715Z,12.43
2023-05-19T20:57:28.713Z,15.60
2023-05-19T20:59:55.455Z,16.27
2023-05-19T21:02:22.030Z,16.30
2023-05-19T21:04:48.517Z,17.40
2023-05-19T21:07:15.288Z,15.52
2023-05-19T21:09:42.539Z,13.57
2023-05-19T21:12:09.372Z,16.55
2023-05-19T21:14:36.142Z,16.27
2023-05-19T21:17:03.112Z,17.10
2023-05-19T21:19:29.725Z,17.83
2023-05-19T21:21:56.382Z,14.88
2023-05-19T21:24:23.495Z,16.17
2023-05-19T21:26:50.377Z,15.82
2023-05-19T21:29:16.901Z,19.73
2023-05-19T21:31:43.620Z,15.63
2023-05-19T21:34:10.640Z,21.20
2023-05-19T21:36:37.284Z,17.25
2023-05-19T21:39:04.695Z,20.13
2023-05-19T21:41:31.646Z,18.63
2023-05-19T21:43:58.377Z,21.95
2023-05-19T21:46:25.338Z,16.88
2023-05-19T21:48:51.953Z,17.42
2023-05-19T21:51:18.564Z,17.77
2023-05-19T21:53:45.154Z,18.93
2023-05-19T21:56:12.561Z,16.50
2023-05-19T21:58:39.593Z,18.30
2023-05-19T22:01:06.147Z,15.73
2023-05-19T22:03:33.583Z,15.88
2023-05-19T22:06:00.826Z,21.17
2023-05-19T22:08:28.093Z,20.42
2023-05-19T22:10:54.641Z,18.05
2023-05-19T22:13:21.243Z,15.50
2023-05-19T22:15:48.921Z,19.67
2023-05-19T22:18:15.631Z,18.00
2023-05-19T22:20:42.751Z,15.85
2023-05-19T22:23:09.495Z,19.48
2023-05-19T22:25:36.438Z,16.75
2023-05-19T22:28:03.053Z,20.58
2023-05-19T22:30:30.070Z,20.10
2023-05-19T22:32:57.337Z,16.73
2023-05-19T22:35:24.348Z,16.38
2023-05-19T22:37:50.858Z,13.07
2023-05-19T22:40:17.704Z,15.48
2023-05-19T22:42:44.256Z,14.67
2023-05-19T22:45:11.361Z,16.08
2023-05-19T22:47:38.746Z,15.30
2023-05-19T22:50:06.308Z,13.52
2023-05-19T22:52:32.902Z,14.55
2023-05-19T22:55:00.374Z,14.80
2023-05-19T22:57:27.224Z,15.57
2023-05-19T22:59:54.288Z,14.88
2023-05-19T23:02:21.372Z,13.63
2023-05-19T23:04:48.347Z,13.25
2023-05-19T23:07:15.215Z,14.97
2023-05-19T23:09:42.241Z,14.95
2023-05-19T23:12:09.035Z,12.27
2023-05-19T23:14:35.524Z,11.85
2023-05-19T23:17:04.133Z,15.90
2023-05-19T23:19:31.127Z,14.13
2023-05-19T23:21:57.693Z,13.77
2023-05-19T23:24:24.332Z,14.00
2023-05-19T23:26:50.965Z,13.82
2023-05-19T23:29:17.506Z,12.93
2023-05-19T23:31:44.787Z,11.77
2023-05-19T23:34:11.595Z,13.32
2023-05-19T23:36:38.472Z,11.43
2023-05-19T23:39:04.994Z,12.57
2023-05-19T23:41:31.800Z,12.23
2023-05-19T23:43:59.588Z,12.43
2023-05-19T23:46:26.519Z,12.45
2023-05-19T23:48:53.410Z,12.80
2023-05-19T23:51:19.915Z,10.60
2023-05-19T23:53:46.440Z,14.88
2023-05-19T23:56:13.209Z,15.13
2023-05-19T23:58:39.922Z,13.45
